createdAt,value
2023-01-02T00:00:50.901Z,98456.09
2023-01-02T00:03:17.550Z,98449.56
2023-01-02T00:05:44.134Z,98449.81
2023-01-02T00:08:10.697Z,98455.81
2023-01-02T00:10:37.364Z,98435.03
2023-01-02T00:13:04.020Z,98432.41
2023-01-02T00:15:30.627Z,98425.84
2023-01-02T00:17:57.132Z,98429.88
2023-01-02T00:20:23.790Z,98421.44
2023-01-02T00:22:50.462Z,98430.91
2023-01-02T00:25:16.989Z,98420.50
2023-01-02T00:27:43.528Z,98421.25
2023-01-02T00:30:10.527Z,98421.72
2023-01-02T00:32:37.761Z,98410.34
2023-01-02T00:35:04.398Z,98403.09
2023-01-02T00:37:30.936Z,98409.13
2023-01-02T00:39:57.451Z,98402.16
2023-01-02T00:42:24.233Z,98416.91
2023-01-02T00:44:50.969Z,98401.78
2023-01-02T00:47:17.541Z,98404.44
2023-01-02T00:49:44.096Z,98409.16
2023-01-02T00:52:10.654Z,98400.28
2023-01-02T00:54:37.181Z,98405.25
2023-01-02T00:57:03.779Z,98411.66
2023-01-02T00:59:30.314Z,98409.25
2023-01-02T01:01:56.881Z,98417.66
2023-01-02T01:04:23.510Z,98421.84
2023-01-02T01:06:50.055Z,98426.66
2023-01-02T01:09:16.931Z,98424.91
2023-01-02T01:11:43.482Z,98428.06
2023-01-02T01:14:10.000Z,98422.66
2023-01-02T01:16:36.648Z,98424.16
2023-01-02T01:19:03.171Z,98426.16
2023-01-02T01:21:29.768Z,98432.66
2023-01-02T01:23:56.318Z,98423.34
2023-01-02T01:26:23.049Z,98421.72
2023-01-02T01:28:51.553Z,98424.19
2023-01-02T01:31:18.120Z,98423.41
2023-01-02T01:33:44.952Z,98433.53
2023-01-02T01:36:12.898Z,98431.06
2023-01-02T01:38:39.844Z,98436.72
2023-01-02T01:41:06.389Z,98446.00
2023-01-02T01:43:35.858Z,98445.84
2023-01-02T01:46:02.425Z,98450.81
2023-01-02T01:48:28.994Z,98446.50
2023-01-02T01:50:55.525Z,98452.47
2023-01-02T01:53:22.216Z,98454.31
2023-01-02T01:55:52.265Z,98449.31
2023-01-02T01:58:19.462Z,98424.94
2023-01-02T02:00:46.175Z,98440.22
2023-01-02T02:03:13.973Z,98438.00
2023-01-02T02:05:40.561Z,98440.16
2023-01-02T02:08:09.550Z,98434.34
2023-01-02T02:10:36.926Z,98435.47
2023-01-02T02:13:03.599Z,98428.97
2023-01-02T02:15:40.038Z,98430.63
2023-01-02T02:18:21.855Z,98432.47
2023-01-02T02:21:11.822Z,98426.00
2023-01-02T02:23:57.069Z,98428.81
2023-01-02T02:26:27.145Z,98422.22
2023-01-02T02:29:02.943Z,98417.38
2023-01-02T02:31:39.019Z,98414.44
2023-01-02T02:34:09.750Z,98406.34
2023-01-02T02:36:38.151Z,98398.41
2023-01-02T02:39:18.104Z,98382.00
2023-01-02T02:41:57.910Z,98381.19
2023-01-02T02:44:30.471Z,98384.19
2023-01-02T02:46:59.777Z,98383.31
2023-01-02T02:49:32.167Z,98381.84
2023-01-02T02:52:07.766Z,98380.09
2023-01-02T02:54:49.019Z,98382.59
2023-01-02T02:57:15.569Z,98381.25
2023-01-02T02:59:42.141Z,98387.72
2023-01-02T03:02:10.139Z,98389.22
2023-01-02T03:04:36.820Z,98381.94
2023-01-02T03:07:16.853Z,98379.47
2023-01-02T03:09:43.308Z,98378.94
2023-01-02T03:12:09.802Z,98376.50
2023-01-02T03:14:51.485Z,98372.00
2023-01-02T03:17:20.247Z,98374.78
2023-01-02T03:19:48.051Z,98369.72
2023-01-02T03:22:19.380Z,98368.91
2023-01-02T03:24:46.155Z,98378.34
2023-01-02T03:27:15.023Z,98381.47
2023-01-02T03:29:52.568Z,98384.00
2023-01-02T03:32:27.150Z,98392.28
2023-01-02T03:34:53.630Z,98377.34
2023-01-02T03:37:22.823Z,98380.69
2023-01-02T03:39:51.170Z,98377.19
2023-01-02T03:42:28.602Z,98380.53
2023-01-02T03:44:57.661Z,98379.03
2023-01-02T03:47:28.642Z,98376.00
2023-01-02T03:49:56.217Z,98368.72
2023-01-02T03:52:26.140Z,98367.53
2023-01-02T03:54:53.161Z,98376.03
2023-01-02T03:57:22.524Z,98377.31
2023-01-02T04:00:03.912Z,98375.47
2023-01-02T04:02:42.649Z,98375.66
2023-01-02T04:05:11.049Z,98381.94
2023-01-02T04:07:57.811Z,98376.31
2023-01-02T04:10:24.369Z,98385.94
2023-01-02T04:12:51.640Z,98386.75
2023-01-02T04:15:18.765Z,98389.09
2023-01-02T04:17:46.164Z,98385.78
2023-01-02T04:20:21.090Z,98371.53
2023-01-02T04:22:52.561Z,98378.13
2023-01-02T04:25:19.315Z,98373.03
2023-01-02T04:27:51.237Z,98369.69
2023-01-02T04:30:17.765Z,98374.53
2023-01-02T04:32:44.852Z,98366.06
2023-01-02T04:35:15.789Z,98358.59
2023-01-02T04:37:43.022Z,98358.78
2023-01-02T04:40:14.137Z,98345.69
2023-01-02T04:42:40.675Z,98357.28
2023-01-02T04:45:07.469Z,98350.97
2023-01-02T04:47:33.978Z,98339.00
2023-01-02T04:50:00.476Z,98343.78
2023-01-02T04:52:29.615Z,98343.47
2023-01-02T04:54:58.677Z,98341.56
2023-01-02T04:57:25.384Z,98342.84
2023-01-02T04:59:51.937Z,98339.38
2023-01-02T05:02:18.550Z,98341.28
2023-01-02T05:04:45.131Z,98337.50
2023-01-02T05:07:11.655Z,98340.97
2023-01-02T05:09:38.190Z,98345.97
2023-01-02T05:12:04.861Z,98344.69
2023-01-02T05:14:31.422Z,98349.06
2023-01-02T05:16:57.945Z,98348.38
2023-01-02T05:19:24.469Z,98363.03
2023-01-02T05:22:09.779Z,98361.97
2023-01-02T05:24:36.290Z,98351.56
2023-01-02T05:27:02.889Z,98359.38
2023-01-02T05:29:30.900Z,98364.06
2023-01-02T05:31:57.396Z,98361.09
2023-01-02T05:34:23.928Z,98362.44
2023-01-02T05:36:50.482Z,98365.75
2023-01-02T05:39:17.036Z,98363.25
2023-01-02T05:41:43.709Z,98371.41
2023-01-02T05:44:10.558Z,98367.34
2023-01-02T05:46:37.694Z,98357.41
2023-01-02T05:49:04.790Z,98367.91
2023-01-02T05:51:31.328Z,98370.50
2023-01-02T05:53:57.885Z,98370.16
2023-01-02T05:56:24.475Z,98364.34
2023-01-02T05:58:51.064Z,98366.69
2023-01-02T06:01:19.259Z,98373.66
2023-01-02T06:03:46.663Z,98367.72
2023-01-02T06:06:13.291Z,98372.81
2023-01-02T06:08:39.864Z,98379.50
2023-01-02T06:11:06.853Z,98380.28
2023-01-02T06:13:34.234Z,98384.91
2023-01-02T06:16:01.350Z,98385.06
2023-01-02T06:18:28.214Z,98393.19
2023-01-02T06:20:58.718Z,98392.38
2023-01-02T06:23:25.237Z,98394.13
2023-01-02T06:25:51.763Z,98398.13
2023-01-02T06:28:18.293Z,98397.91
2023-01-02T06:30:44.841Z,98401.25
2023-01-02T06:33:11.351Z,98401.72
2023-01-02T06:35:37.837Z,98401.03
2023-01-02T06:38:04.374Z,98404.41
2023-01-02T06:40:30.879Z,98401.38
2023-01-02T06:43:00.172Z,98394.53
2023-01-02T06:45:27.048Z,98395.50
2023-01-02T06:47:57.854Z,98401.97
2023-01-02T06:50:31.231Z,98410.78
2023-01-02T06:53:01.121Z,98414.50
2023-01-02T06:55:27.651Z,98412.72
2023-01-02T06:57:54.198Z,98414.72
2023-01-02T07:00:20.773Z,98422.84
2023-01-02T07:02:47.465Z,98415.31
2023-01-02T07:05:17.367Z,98421.38
2023-01-02T07:07:46.316Z,98425.25
2023-01-02T07:10:12.841Z,98433.84
2023-01-02T07:12:39.404Z,98432.09
2023-01-02T07:15:06.452Z,98441.72
2023-01-02T07:17:33.465Z,98443.66
2023-01-02T07:20:02.185Z,98444.94
2023-01-02T07:22:29.116Z,98452.00
2023-01-02T07:24:55.618Z,98458.13
2023-01-02T07:27:22.145Z,98466.84
2023-01-02T07:29:48.679Z,98467.06
2023-01-02T07:32:15.202Z,98465.19
2023-01-02T07:34:41.761Z,98467.56
2023-01-02T07:37:08.293Z,98470.53
2023-01-02T07:39:35.000Z,98473.38
2023-01-02T07:42:01.542Z,98476.50
2023-01-02T07:44:28.222Z,98477.28
2023-01-02T07:46:54.775Z,98478.09
2023-01-02T07:49:21.288Z,98479.72
2023-01-02T07:51:47.827Z,98477.34
2023-01-02T07:54:14.380Z,98481.97
2023-01-02T07:56:40.912Z,98487.31
2023-01-02T07:59:07.458Z,98487.31
2023-01-02T08:01:34.091Z,98488.97
2023-01-02T08:04:00.722Z,98489.84
2023-01-02T08:06:27.296Z,98482.16
2023-01-02T08:08:53.846Z,98486.97
2023-01-02T08:11:21.706Z,98483.41
2023-01-02T08:13:48.438Z,98493.34
2023-01-02T08:16:16.088Z,98492.59
2023-01-02T08:18:42.635Z,98496.38
2023-01-02T08:21:09.530Z,98492.41
2023-01-02T08:23:36.096Z,98495.75
2023-01-02T08:26:03.777Z,98505.06
2023-01-02T08:28:30.391Z,98502.44
2023-01-02T08:30:57.054Z,98506.44
2023-01-02T08:33:23.613Z,98510.28
2023-01-02T08:35:50.244Z,98507.00
2023-01-02T08:38:16.787Z,98509.13
2023-01-02T08:40:43.328Z,98517.97
2023-01-02T08:43:09.864Z,98515.63
2023-01-02T08:45:36.357Z,98520.78
2023-01-02T08:48:20.524Z,98513.66
2023-01-02T08:50:48.064Z,98516.00
2023-01-02T08:53:14.587Z,98519.34
2023-01-02T08:55:41.141Z,98524.94
2023-01-02T08:58:07.753Z,98523.63
2023-01-02T09:00:34.285Z,98513.84
2023-01-02T09:03:00.918Z,98510.03
2023-01-02T09:05:30.953Z,98514.16
2023-01-02T09:07:57.995Z,98508.69
2023-01-02T09:10:24.607Z,98511.94
2023-01-02T09:12:51.180Z,98520.03
2023-01-02T09:15:17.728Z,98528.66
2023-01-02T09:17:44.283Z,98532.94
2023-01-02T09:20:10.884Z,98533.13
2023-01-02T09:22:37.426Z,98531.16
2023-01-02T09:25:04.617Z,98538.50
2023-01-02T09:27:31.184Z,98534.78
2023-01-02T09:29:57.738Z,98549.25
2023-01-02T09:32:24.263Z,98549.41
2023-01-02T09:34:50.951Z,98542.94
2023-01-02T09:37:17.783Z,98551.50
2023-01-02T09:39:44.370Z,98554.91
2023-01-02T09:42:13.391Z,98559.81
2023-01-02T09:44:47.183Z,98559.44
2023-01-02T09:47:14.822Z,98564.00
2023-01-02T09:49:41.282Z,98561.50
2023-01-02T09:52:08.236Z,98560.13
2023-01-02T09:54:35.048Z,98563.25
2023-01-02T09:57:24.778Z,98565.59
2023-01-02T09:59:51.334Z,98572.41
2023-01-02T10:02:17.853Z,98566.19
2023-01-02T10:05:04.795Z,98569.97
2023-01-02T10:07:34.263Z,98574.06
2023-01-02T10:10:01.062Z,98579.41
2023-01-02T10:12:34.616Z,98576.34
2023-01-02T10:15:02.346Z,98577.59
2023-01-02T10:17:30.043Z,98579.31
2023-01-02T10:19:58.604Z,98584.34
2023-01-02T10:22:45.420Z,98590.63
2023-01-02T10:25:18.858Z,98582.53
2023-01-02T10:27:56.029Z,98590.00
2023-01-02T10:30:23.845Z,98593.09
2023-01-02T10:33:10.788Z,98597.22
2023-01-02T10:35:44.552Z,98601.06
2023-01-02T10:38:11.925Z,98602.25
2023-01-02T10:40:38.577Z,98603.72
2023-01-02T10:43:05.121Z,98604.66
2023-01-02T10:45:31.709Z,98602.09
2023-01-02T10:47:58.207Z,98601.72
2023-01-02T10:50:38.547Z,98589.50
2023-01-02T10:53:10.107Z,98591.44
2023-01-02T10:55:41.683Z,98590.28
2023-01-02T10:58:28.338Z,98586.22
2023-01-02T11:01:08.045Z,98585.97
2023-01-02T11:03:37.210Z,98584.16
2023-01-02T11:06:25.689Z,98600.38
2023-01-02T11:09:00.827Z,98594.63
2023-01-02T11:11:27.983Z,98594.84
2023-01-02T11:13:57.829Z,98586.47
2023-01-02T11:16:25.253Z,98589.63
2023-01-02T11:18:52.955Z,98597.66
2023-01-02T11:21:29.651Z,98585.19
2023-01-02T11:24:00.372Z,98585.91
2023-01-02T11:26:26.946Z,98576.50
2023-01-02T11:28:53.649Z,98580.22
2023-01-02T11:31:23.401Z,98586.44
2023-01-02T11:33:49.988Z,98586.25
2023-01-02T11:36:17.608Z,98584.00
2023-01-02T11:38:44.124Z,98584.47
2023-01-02T11:41:21.768Z,98580.91
2023-01-02T11:43:51.879Z,98585.69
2023-01-02T11:46:22.972Z,98584.09
2023-01-02T11:48:49.792Z,98581.97
2023-01-02T11:51:17.748Z,98590.59
2023-01-02T11:53:46.384Z,98587.56
2023-01-02T11:56:18.022Z,98590.69
2023-01-02T11:58:53.359Z,98595.63
2023-01-02T12:01:26.274Z,98585.09
2023-01-02T12:03:52.923Z,98586.50
2023-01-02T12:06:19.562Z,98592.03
2023-01-02T12:09:00.690Z,98590.81
2023-01-02T12:11:30.253Z,98591.00
2023-01-02T12:13:59.821Z,98588.81
2023-01-02T12:16:40.378Z,98599.94
2023-01-02T12:19:13.824Z,98605.50
2023-01-02T12:21:47.047Z,98602.66
2023-01-02T12:24:33.580Z,98601.56
2023-01-02T12:27:17.535Z,98604.94
2023-01-02T12:29:48.871Z,98598.94
2023-01-02T12:32:42.119Z,98593.00
2023-01-02T12:35:21.698Z,98594.16
2023-01-02T12:37:52.617Z,98586.03
2023-01-02T12:40:25.650Z,98585.50
2023-01-02T12:43:07.881Z,98589.31
2023-01-02T12:45:53.107Z,98585.03
2023-01-02T12:48:19.663Z,98595.72
2023-01-02T12:50:49.433Z,98598.88
2023-01-02T12:53:26.321Z,98602.72
2023-01-02T12:55:57.160Z,98608.03
2023-01-02T12:58:37.591Z,98608.16
2023-01-02T13:01:04.117Z,98606.38
2023-01-02T13:03:33.497Z,98607.66
2023-01-02T13:06:03.101Z,98611.66
2023-01-02T13:08:31.649Z,98602.66
2023-01-02T13:10:58.936Z,98602.56
2023-01-02T13:13:25.787Z,98609.69
2023-01-02T13:15:52.305Z,98614.81
2023-01-02T13:18:18.789Z,98615.03
2023-01-02T13:20:51.259Z,98614.78
2023-01-02T13:23:31.799Z,98614.91
2023-01-02T13:25:59.744Z,98615.44
2023-01-02T13:28:26.332Z,98617.72
2023-01-02T13:31:11.098Z,98620.13
2023-01-02T13:33:44.120Z,98624.75
2023-01-02T13:36:17.547Z,98619.38
2023-01-02T13:38:44.738Z,98619.63
2023-01-02T13:41:14.077Z,98620.50
2023-01-02T13:43:40.602Z,98625.00
2023-01-02T13:46:09.228Z,98619.31
2023-01-02T13:48:39.405Z,98621.22
2023-01-02T13:51:06.893Z,98620.66
2023-01-02T13:53:35.991Z,98632.38
2023-01-02T13:56:04.967Z,98644.19
2023-01-02T13:58:51.516Z,98643.13
2023-01-02T14:01:21.260Z,98637.81
2023-01-02T14:03:48.678Z,98645.78
2023-01-02T14:06:32.050Z,98654.53
2023-01-02T14:09:04.714Z,98655.28
2023-01-02T14:11:56.514Z,98656.94
2023-01-02T14:14:37.325Z,98662.66
2023-01-02T14:17:22.094Z,98666.28
2023-01-02T14:19:58.345Z,98668.69
2023-01-02T14:22:24.874Z,98669.59
2023-01-02T14:24:51.705Z,98676.13
2023-01-02T14:27:18.232Z,98679.44
2023-01-02T14:29:50.603Z,98690.53
2023-01-02T14:32:22.730Z,98694.28
2023-01-02T14:34:50.087Z,98694.56
2023-01-02T14:37:33.623Z,98699.81
2023-01-02T14:40:33.196Z,98708.03
2023-01-02T14:43:18.317Z,98718.59
2023-01-02T14:45:49.052Z,98710.63
2023-01-02T14:48:17.310Z,98721.13
2023-01-02T14:50:43.871Z,98722.56
2023-01-02T14:53:15.124Z,98718.38
2023-01-02T14:55:42.534Z,98716.56
2023-01-02T14:58:38.565Z,98733.09
2023-01-02T15:01:05.465Z,98731.03
2023-01-02T15:03:41.432Z,98726.00
2023-01-02T15:06:08.758Z,98735.38
2023-01-02T15:08:36.892Z,98738.78
2023-01-02T15:11:22.744Z,98740.03
2023-01-02T15:14:03.884Z,98754.59
2023-01-02T15:16:32.259Z,98752.00
2023-01-02T15:18:59.293Z,98757.22
2023-01-02T15:21:26.829Z,98749.38
2023-01-02T15:23:53.749Z,98757.88
2023-01-02T15:26:32.938Z,98775.59
2023-01-02T15:29:01.680Z,98773.31
2023-01-02T15:31:28.225Z,98771.19
2023-01-02T15:33:55.603Z,98781.06
2023-01-02T15:36:32.925Z,98790.59
2023-01-02T15:39:06.780Z,98783.56
2023-01-02T15:41:33.336Z,98795.44
2023-01-02T15:44:18.630Z,98789.41
2023-01-02T15:46:45.174Z,98803.59
2023-01-02T15:49:13.164Z,98802.75
2023-01-02T15:51:41.868Z,98809.75
2023-01-02T15:54:14.636Z,98804.28
2023-01-02T15:56:41.463Z,98807.22
2023-01-02T15:59:26.974Z,98798.13
2023-01-02T16:01:53.777Z,98809.56
2023-01-02T16:04:27.784Z,98825.88
2023-01-02T16:12:54.042Z,98821.06
2023-01-02T16:15:21.887Z,98827.94
2023-01-02T16:17:48.471Z,98834.72
2023-01-02T16:20:14.890Z,98839.38
2023-01-02T16:22:47.479Z,98837.91
2023-01-02T16:25:18.380Z,98840.56
2023-01-02T16:27:55.362Z,98846.25
2023-01-02T16:30:32.724Z,98852.22
2023-01-02T16:33:04.076Z,98852.41
2023-01-02T16:35:32.695Z,98860.38
2023-01-02T16:38:06.094Z,98867.19
2023-01-02T16:41:01.647Z,98872.66
2023-01-02T16:43:28.086Z,98868.19
2023-01-02T16:45:54.742Z,98887.16
2023-01-02T16:48:22.166Z,98879.31
2023-01-02T16:50:49.520Z,98883.84
2023-01-02T16:53:17.176Z,98885.97
2023-01-02T16:55:43.694Z,98889.81
2023-01-02T16:58:10.247Z,98894.44
2023-01-02T17:00:43.020Z,98900.59
2023-01-02T17:03:14.310Z,98903.28
2023-01-02T17:05:41.377Z,98911.41
2023-01-02T17:08:10.371Z,98908.41
2023-01-02T17:10:36.996Z,98913.06
2023-01-02T17:13:03.944Z,98905.41
2023-01-02T17:15:32.283Z,98905.75
2023-01-02T17:17:59.105Z,98908.41
2023-01-02T17:20:25.973Z,98913.72
2023-01-02T17:22:52.527Z,98917.06
2023-01-02T17:25:19.117Z,98915.38
2023-01-02T17:27:46.011Z,98922.66
2023-01-02T17:30:13.292Z,98929.81
2023-01-02T17:32:41.078Z,98943.59
2023-01-02T17:35:07.795Z,98949.81
2023-01-02T17:37:34.386Z,98952.28
2023-01-02T17:40:00.918Z,98954.91
2023-01-02T17:42:27.499Z,98952.91
2023-01-02T17:44:54.090Z,98963.19
2023-01-02T17:50:07.422Z,98975.69
2023-01-02T17:52:33.959Z,98973.84
2023-01-02T17:55:00.504Z,98981.47
2023-01-02T17:57:27.111Z,98986.78
2023-01-02T17:59:53.669Z,98989.31
2023-01-02T18:02:20.672Z,98988.63
2023-01-02T18:04:54.647Z,98993.31
2023-01-02T18:07:23.486Z,99000.94
2023-01-02T18:10:07.504Z,99012.94
2023-01-02T18:12:37.865Z,99009.78
2023-01-02T18:15:11.276Z,99025.53
2023-01-02T18:17:37.852Z,99014.03
2023-01-02T18:20:18.684Z,99019.75
2023-01-02T18:22:49.548Z,99032.00
2023-01-02T18:25:25.625Z,99024.66
2023-01-02T18:27:52.769Z,99038.94
2023-01-02T18:30:22.964Z,99029.53
2023-01-02T18:32:50.454Z,99039.56
2023-01-02T18:35:56.114Z,99036.16
2023-01-02T18:38:18.320Z,99044.41
2023-01-02T18:40:44.873Z,99044.09
2023-01-02T18:43:22.847Z,99050.84
2023-01-02T18:45:50.836Z,99056.91
2023-01-02T18:48:18.663Z,99058.34
2023-01-02T18:50:49.101Z,99074.69
2023-01-02T18:53:22.916Z,99081.25
2023-01-02T18:55:54.788Z,99083.75
2023-01-02T18:58:33.281Z,99089.78
2023-01-02T19:00:59.864Z,99089.19
2023-01-02T19:03:28.510Z,99091.06
2023-01-02T19:05:55.098Z,99101.44
2023-01-02T19:08:22.435Z,99102.91
2023-01-02T19:10:51.431Z,99118.38
2023-01-02T19:13:19.781Z,99118.59
2023-01-02T19:15:51.157Z,99115.91
2023-01-02T19:18:25.073Z,99122.31
2023-01-02T19:21:04.139Z,99124.16
2023-01-02T19:23:30.621Z,99124.44
2023-01-02T19:26:01.696Z,99123.31
2023-01-02T19:28:29.397Z,99132.53
2023-01-02T19:30:56.083Z,99128.63
2023-01-02T19:33:42.593Z,99141.41
2023-01-02T19:36:14.913Z,99141.94
2023-01-02T19:38:41.424Z,99152.00
2023-01-02T19:41:08.463Z,99154.53
2023-01-02T19:43:35.602Z,99155.13
2023-01-02T19:46:02.185Z,99165.97
2023-01-02T19:48:28.709Z,99178.81
2023-01-02T19:50:55.535Z,99176.84
2023-01-02T19:53:22.094Z,99174.47
2023-01-02T19:55:48.630Z,99189.97
2023-01-02T19:58:15.240Z,99200.13
2023-01-02T20:00:41.822Z,99196.81
2023-01-02T20:03:09.313Z,99199.72
2023-01-02T20:05:36.884Z,99202.25
2023-01-02T20:08:03.829Z,99198.22
2023-01-02T20:10:30.765Z,99198.91
2023-01-02T20:19:08.545Z,99192.78
2023-01-02T20:21:35.572Z,99199.47
2023-01-02T20:24:02.417Z,99204.22
2023-01-02T20:26:29.056Z,99208.25
2023-01-02T20:28:55.658Z,99209.38
2023-01-02T20:31:22.329Z,99212.84
2023-01-02T20:33:49.455Z,99225.13
2023-01-02T20:36:16.015Z,99231.81
2023-01-02T20:38:42.539Z,99222.34
2023-01-02T20:41:09.115Z,99227.50
2023-01-02T20:43:35.654Z,99230.53
2023-01-02T20:46:02.290Z,99222.34
2023-01-02T20:48:28.883Z,99240.47
2023-01-02T20:50:55.512Z,99241.88
2023-01-02T20:53:22.090Z,99230.28
2023-01-02T20:55:50.801Z,99239.56
2023-01-02T20:58:17.460Z,99239.75
2023-01-02T21:00:44.750Z,99249.59
2023-01-02T21:03:11.598Z,99253.66
2023-01-02T21:05:39.551Z,99263.97
2023-01-02T21:08:06.696Z,99256.84
2023-01-02T21:10:33.515Z,99252.13
2023-01-02T21:13:10.648Z,99248.66
2023-01-02T21:15:46.425Z,99261.91
2023-01-02T21:18:29.239Z,99271.06
2023-01-02T21:20:57.066Z,99274.63
2023-01-02T21:23:24.432Z,99274.28
2023-01-02T21:25:51.096Z,99274.50
2023-01-02T21:28:19.267Z,99285.66
2023-01-02T21:30:45.913Z,99291.94
2023-01-02T21:33:23.699Z,99287.59
2023-01-02T21:35:51.035Z,99296.13
2023-01-02T21:38:24.058Z,99295.22
2023-01-02T21:40:52.155Z,99297.56
2023-01-02T21:43:19.175Z,99305.34
2023-01-02T21:45:45.739Z,99301.03
2023-01-02T21:48:12.400Z,99305.22
2023-01-02T21:50:39.131Z,99300.31
2023-01-02T21:53:05.714Z,99316.47
2023-01-02T21:55:32.252Z,99313.44
2023-01-02T21:58:14.928Z,99311.78
2023-01-02T22:00:42.000Z,99310.47
2023-01-02T22:03:08.789Z,99317.94
2023-01-02T22:05:35.409Z,99321.66
2023-01-02T22:08:01.947Z,99317.09
2023-01-02T22:10:28.526Z,99316.63
2023-01-02T22:12:55.123Z,99318.34
2023-01-02T22:15:21.849Z,99322.38
2023-01-02T22:17:48.381Z,99333.66
2023-01-02T22:20:15.298Z,99330.75
2023-01-02T22:22:42.410Z,99337.56
2023-01-02T22:25:09.135Z,99344.41
2023-01-02T22:27:35.727Z,99343.72
2023-01-02T22:30:21.570Z,99351.16
2023-01-02T22:32:51.401Z,99353.97
2023-01-02T22:35:17.929Z,99363.28
2023-01-02T22:37:44.485Z,99368.31
2023-01-02T22:40:11.463Z,99366.94
2023-01-02T22:43:03.471Z,99362.59
2023-01-02T22:45:33.295Z,99361.03
2023-01-02T22:48:00.820Z,99351.91
2023-01-02T22:50:32.822Z,99352.16
2023-01-02T22:52:59.351Z,99355.41
2023-01-02T22:55:27.199Z,99378.06
2023-01-02T22:57:54.420Z,99363.88
2023-01-02T23:00:27.624Z,99379.44
2023-01-02T23:02:54.236Z,99382.31
2023-01-02T23:05:21.274Z,99374.69
2023-01-02T23:07:49.756Z,99362.06
2023-01-02T23:10:16.580Z,99358.56
2023-01-02T23:12:43.183Z,99352.16
2023-01-02T23:15:11.842Z,99350.78
2023-01-02T23:17:57.086Z,99349.06
2023-01-02T23:20:23.959Z,99359.91
2023-01-02T23:22:50.628Z,99360.31
2023-01-02T23:25:17.207Z,99379.56
2023-01-02T23:27:43.811Z,99379.44
2023-01-02T23:30:10.735Z,99377.41
2023-01-02T23:32:37.857Z,99373.00
2023-01-02T23:35:04.531Z,99376.22
2023-01-02T23:37:31.038Z,99370.84
2023-01-02T23:39:57.618Z,99363.06
2023-01-02T23:42:24.808Z,99363.75
2023-01-02T23:44:51.380Z,99366.38
2023-01-02T23:47:19.442Z,99377.13
2023-01-02T23:49:46.203Z,99384.56
2023-01-02T23:52:13.048Z,99377.63
2023-01-02T23:54:39.810Z,99373.22
2023-01-02T23:57:06.527Z,99374.97
2023-01-02T23:59:33.068Z,99384.50
